sensor_id;sensor_type;location;lat;lon;timestamp;P1;durP1;ratioP1;P2;durP2;ratioP2
4857;SDS011;58975;51.978;8.472;2023-12-20T00:04:37;18.25;;;9.77;;
4857;SDS011;58975;51.978;8.472;2023-12-20T00:09:34;20.98;;;8.88;;
4857;SDS011;58975;51.978;8.472;2023-12-20T00:14:30;22.48;;;8.57;;
4857;SDS011;58975;51.978;8.472;2023-12-20T00:19:27;20.50;;;9.05;;
4857;SDS011;58975;51.978;8.472;2023-12-20T00:24:23;24.17;;;10.25;;
4857;SDS011;58975;51.978;8.472;2023-12-20T00:29:20;21.67;;;9.68;;
4857;SDS011;58975;51.978;8.472;2023-12-20T00:34:16;19.60;;;9.70;;
4857;SDS011;58975;51.978;8.472;2023-12-20T00:39:13;22.15;;;8.80;;
4857;SDS011;58975;51.978;8.472;2023-12-20T00:44:09;19.23;;;7.68;;
4857;SDS011;58975;51.978;8.472;2023-12-20T00:49:06;23.60;;;7.78;;
4857;SDS011;58975;51.978;8.472;2023-12-20T00:54:02;16.50;;;7.22;;
4857;SDS011;58975;51.978;8.472;2023-12-20T00:58:59;17.85;;;7.50;;
4857;SDS011;58975;51.978;8.472;2023-12-20T01:03:55;16.63;;;7.28;;
4857;SDS011;58975;51.978;8.472;2023-12-20T01:08:52;23.20;;;6.97;;
4857;SDS011;58975;51.978;8.472;2023-12-20T01:13:48;21.17;;;7.78;;
4857;SDS011;58975;51.978;8.472;2023-12-20T01:18:45;15.85;;;6.57;;
4857;SDS011;58975;51.978;8.472;2023-12-20T01:23:41;17.65;;;6.50;;
4857;SDS011;58975;51.978;8.472;2023-12-20T01:28:37;17.13;;;6.82;;
4857;SDS011;58975;51.978;8.472;2023-12-20T01:33:35;17.30;;;5.55;;
4857;SDS011;58975;51.978;8.472;2023-12-20T01:38:31;14.88;;;5.28;;
4857;SDS011;58975;51.978;8.472;2023-12-20T01:43:29;13.13;;;5.20;;
4857;SDS011;58975;51.978;8.472;2023-12-20T01:48:30;11.48;;;4.68;;
4857;SDS011;58975;51.978;8.472;2023-12-20T01:53:28;18.90;;;6.73;;
4857;SDS011;58975;51.978;8.472;2023-12-20T01:58:25;8.90;;;4.90;;
4857;SDS011;58975;51.978;8.472;2023-12-20T02:03:22;9.50;;;3.90;;
4857;SDS011;58975;51.978;8.472;2023-12-20T02:08:19;17.75;;;4.00;;
4857;SDS011;58975;51.978;8.472;2023-12-20T02:13:16;9.30;;;4.05;;
4857;SDS011;58975;51.978;8.472;2023-12-20T02:18:12;9.80;;;3.38;;
4857;SDS011;58975;51.978;8.472;2023-12-20T02:23:11;11.00;;;3.03;;
4857;SDS011;58975;51.978;8.472;2023-12-20T02:28:08;6.65;;;3.03;;
4857;SDS011;58975;51.978;8.472;2023-12-20T02:33:05;10.60;;;4.15;;
4857;SDS011;58975;51.978;8.472;2023-12-20T02:38:07;9.55;;;3.83;;
4857;SDS011;58975;51.978;8.472;2023-12-20T02:43:03;14.85;;;3.15;;
4857;SDS011;58975;51.978;8.472;2023-12-20T02:48:00;10.35;;;3.13;;
4857;SDS011;58975;51.978;8.472;2023-12-20T02:52:57;9.48;;;3.38;;
4857;SDS011;58975;51.978;8.472;2023-12-20T02:57:53;12.23;;;3.60;;
4857;SDS011;58975;51.978;8.472;2023-12-20T03:02:49;8.77;;;3.72;;
4857;SDS011;58975;51.978;8.472;2023-12-20T03:07:46;16.02;;;4.68;;
4857;SDS011;58975;51.978;8.472;2023-12-20T03:12:42;10.00;;;3.85;;
4857;SDS011;58975;51.978;8.472;2023-12-20T03:17:39;18.35;;;5.78;;
4857;SDS011;58975;51.978;8.472;2023-12-20T03:22:36;20.05;;;6.82;;
4857;SDS011;58975;51.978;8.472;2023-12-20T03:27:32;18.17;;;6.82;;
4857;SDS011;58975;51.978;8.472;2023-12-20T03:32:29;21.25;;;7.53;;
4857;SDS011;58975;51.978;8.472;2023-12-20T03:37:25;17.05;;;6.50;;
4857;SDS011;58975;51.978;8.472;2023-12-20T03:42:22;25.77;;;8.13;;
4857;SDS011;58975;51.978;8.472;2023-12-20T03:47:18;24.13;;;8.23;;
4857;SDS011;58975;51.978;8.472;2023-12-20T03:52:15;16.35;;;7.25;;
4857;SDS011;58975;51.978;8.472;2023-12-20T03:57:11;28.10;;;7.97;;
4857;SDS011;58975;51.978;8.472;2023-12-20T04:02:08;15.95;;;7.40;;
4857;SDS011;58975;51.978;8.472;2023-12-20T04:07:04;19.80;;;9.27;;
4857;SDS011;58975;51.978;8.472;2023-12-20T04:12:00;29.13;;;7.60;;
4857;SDS011;58975;51.978;8.472;2023-12-20T04:16:57;26.73;;;7.72;;
4857;SDS011;58975;51.978;8.472;2023-12-20T04:21:53;22.88;;;7.20;;
4857;SDS011;58975;51.978;8.472;2023-12-20T04:26:50;22.77;;;6.65;;
4857;SDS011;58975;51.978;8.472;2023-12-20T04:31:46;22.88;;;7.65;;
4857;SDS011;58975;51.978;8.472;2023-12-20T04:36:43;17.17;;;5.97;;
4857;SDS011;58975;51.978;8.472;2023-12-20T04:41:40;16.63;;;5.40;;
4857;SDS011;58975;51.978;8.472;2023-12-20T04:46:36;24.27;;;7.40;;
4857;SDS011;58975;51.978;8.472;2023-12-20T04:51:33;17.90;;;5.95;;
4857;SDS011;58975;51.978;8.472;2023-12-20T04:56:30;22.90;;;6.43;;
4857;SDS011;58975;51.978;8.472;2023-12-20T05:01:27;30.33;;;6.65;;
4857;SDS011;58975;51.978;8.472;2023-12-20T05:06:23;24.88;;;5.53;;
4857;SDS011;58975;51.978;8.472;2023-12-20T05:11:21;22.50;;;7.32;;
4857;SDS011;58975;51.978;8.472;2023-12-20T05:16:17;27.25;;;5.05;;
4857;SDS011;58975;51.978;8.472;2023-12-20T05:21:15;21.55;;;6.72;;
4857;SDS011;58975;51.978;8.472;2023-12-20T05:26:11;19.42;;;5.25;;
4857;SDS011;58975;51.978;8.472;2023-12-20T05:31:08;23.80;;;6.15;;
4857;SDS011;58975;51.978;8.472;2023-12-20T05:36:05;27.27;;;7.28;;
4857;SDS011;58975;51.978;8.472;2023-12-20T05:41:01;17.83;;;5.65;;
4857;SDS011;58975;51.978;8.472;2023-12-20T05:45:58;19.70;;;5.60;;
4857;SDS011;58975;51.978;8.472;2023-12-20T05:50:55;27.08;;;7.10;;
4857;SDS011;58975;51.978;8.472;2023-12-20T05:55:52;27.73;;;6.18;;
4857;SDS011;58975;51.978;8.472;2023-12-20T06:00:48;32.58;;;6.55;;
4857;SDS011;58975;51.978;8.472;2023-12-20T06:05:45;29.15;;;7.57;;
4857;SDS011;58975;51.978;8.472;2023-12-20T06:10:41;27.75;;;7.82;;
4857;SDS011;58975;51.978;8.472;2023-12-20T06:15:38;24.17;;;8.07;;
4857;SDS011;58975;51.978;8.472;2023-12-20T06:20:36;48.03;;;9.17;;
4857;SDS011;58975;51.978;8.472;2023-12-20T06:25:33;26.67;;;7.05;;
4857;SDS011;58975;51.978;8.472;2023-12-20T06:30:29;31.20;;;6.97;;
4857;SDS011;58975;51.978;8.472;2023-12-20T06:35:26;31.35;;;6.60;;
4857;SDS011;58975;51.978;8.472;2023-12-20T06:40:22;34.15;;;7.18;;
4857;SDS011;58975;51.978;8.472;2023-12-20T06:45:19;35.22;;;9.18;;
4857;SDS011;58975;51.978;8.472;2023-12-20T06:50:15;24.27;;;7.47;;
4857;SDS011;58975;51.978;8.472;2023-12-20T06:55:12;20.77;;;6.45;;
4857;SDS011;58975;51.978;8.472;2023-12-20T07:00:08;26.67;;;8.07;;
4857;SDS011;58975;51.978;8.472;2023-12-20T07:05:07;18.20;;;6.13;;
4857;SDS011;58975;51.978;8.472;2023-12-20T07:10:04;20.90;;;6.32;;
4857;SDS011;58975;51.978;8.472;2023-12-20T07:15:00;24.85;;;5.85;;
4857;SDS011;58975;51.978;8.472;2023-12-20T07:19:57;18.10;;;5.00;;
4857;SDS011;58975;51.978;8.472;2023-12-20T07:24:53;34.85;;;7.18;;
4857;SDS011;58975;51.978;8.472;2023-12-20T07:29:51;20.40;;;5.70;;
4857;SDS011;58975;51.978;8.472;2023-12-20T07:34:47;15.57;;;5.00;;
4857;SDS011;58975;51.978;8.472;2023-12-20T07:39:44;18.77;;;4.60;;
4857;SDS011;58975;51.978;8.472;2023-12-20T07:44:40;20.25;;;5.80;;
4857;SDS011;58975;51.978;8.472;2023-12-20T07:49:37;14.43;;;5.03;;
4857;SDS011;58975;51.978;8.472;2023-12-20T07:54:34;17.52;;;4.25;;
4857;SDS011;58975;51.978;8.472;2023-12-20T07:59:30;15.13;;;4.88;;
4857;SDS011;58975;51.978;8.472;2023-12-20T08:04:28;14.50;;;4.97;;
4857;SDS011;58975;51.978;8.472;2023-12-20T08:09:25;20.33;;;4.53;;
4857;SDS011;58975;51.978;8.472;2023-12-20T08:14:21;21.48;;;4.53;;
4857;SDS011;58975;51.978;8.472;2023-12-20T08:19:18;16.15;;;4.38;;
4857;SDS011;58975;51.978;8.472;2023-12-20T08:24:15;24.10;;;3.83;;
4857;SDS011;58975;51.978;8.472;2023-12-20T08:29:12;13.32;;;4.05;;
4857;SDS011;58975;51.978;8.472;2023-12-20T08:34:10;12.85;;;4.53;;
4857;SDS011;58975;51.978;8.472;2023-12-20T08:44:05;15.48;;;3.58;;
4857;SDS011;58975;51.978;8.472;2023-12-20T08:49:01;22.90;;;5.38;;
4857;SDS011;58975;51.978;8.472;2023-12-20T08:53:58;14.90;;;4.75;;
4857;SDS011;58975;51.978;8.472;2023-12-20T08:58:55;14.48;;;5.05;;
4857;SDS011;58975;51.978;8.472;2023-12-20T09:03:51;17.92;;;5.20;;
4857;SDS011;58975;51.978;8.472;2023-12-20T09:08:49;25.27;;;5.15;;
4857;SDS011;58975;51.978;8.472;2023-12-20T09:13:45;20.27;;;4.82;;
4857;SDS011;58975;51.978;8.472;2023-12-20T09:18:42;27.67;;;7.10;;
4857;SDS011;58975;51.978;8.472;2023-12-20T09:23:39;20.77;;;6.65;;
4857;SDS011;58975;51.978;8.472;2023-12-20T09:28:36;19.17;;;7.40;;
4857;SDS011;58975;51.978;8.472;2023-12-20T09:33:33;16.08;;;6.28;;
4857;SDS011;58975;51.978;8.472;2023-12-20T09:38:30;17.02;;;5.78;;
4857;SDS011;58975;51.978;8.472;2023-12-20T09:43:26;16.92;;;5.35;;
4857;SDS011;58975;51.978;8.472;2023-12-20T09:48:26;18.27;;;5.95;;
4857;SDS011;58975;51.978;8.472;2023-12-20T09:53:23;27.45;;;7.45;;
4857;SDS011;58975;51.978;8.472;2023-12-20T09:58:25;23.30;;;6.95;;
4857;SDS011;58975;51.978;8.472;2023-12-20T10:03:23;26.35;;;6.75;;
4857;SDS011;58975;51.978;8.472;2023-12-20T10:08:21;22.40;;;5.38;;
4857;SDS011;58975;51.978;8.472;2023-12-20T10:13:19;24.30;;;5.82;;
4857;SDS011;58975;51.978;8.472;2023-12-20T10:18:15;17.65;;;4.22;;
4857;SDS011;58975;51.978;8.472;2023-12-20T10:23:12;13.15;;;4.70;;
4857;SDS011;58975;51.978;8.472;2023-12-20T10:33:10;15.48;;;4.75;;
4857;SDS011;58975;51.978;8.472;2023-12-20T10:38:07;25.30;;;5.53;;
4857;SDS011;58975;51.978;8.472;2023-12-20T10:43:05;21.85;;;4.95;;
4857;SDS011;58975;51.978;8.472;2023-12-20T10:48:02;24.08;;;8.38;;
4857;SDS011;58975;51.978;8.472;2023-12-20T10:52:59;13.02;;;4.53;;
4857;SDS011;58975;51.978;8.472;2023-12-20T10:58:00;25.30;;;6.43;;
4857;SDS011;58975;51.978;8.472;2023-12-20T11:03:00;25.85;;;6.28;;
4857;SDS011;58975;51.978;8.472;2023-12-20T11:08:02;18.83;;;6.40;;
4857;SDS011;58975;51.978;8.472;2023-12-20T11:13:09;22.13;;;4.65;;
4857;SDS011;58975;51.978;8.472;2023-12-20T11:18:09;17.13;;;4.85;;
4857;SDS011;58975;51.978;8.472;2023-12-20T11:23:06;19.80;;;5.35;;
4857;SDS011;58975;51.978;8.472;2023-12-20T11:28:10;19.40;;;4.43;;
4857;SDS011;58975;51.978;8.472;2023-12-20T11:33:08;13.52;;;3.58;;
4857;SDS011;58975;51.978;8.472;2023-12-20T11:38:07;18.92;;;3.60;;
4857;SDS011;58975;51.978;8.472;2023-12-20T11:43:04;19.33;;;4.00;;
4857;SDS011;58975;51.978;8.472;2023-12-20T11:48:03;30.48;;;4.57;;
4857;SDS011;58975;51.978;8.472;2023-12-20T11:53:00;11.48;;;3.40;;
4857;SDS011;58975;51.978;8.472;2023-12-20T11:57:57;16.00;;;4.28;;
4857;SDS011;58975;51.978;8.472;2023-12-20T12:02:57;11.98;;;4.25;;
4857;SDS011;58975;51.978;8.472;2023-12-20T12:07:54;14.50;;;2.88;;
4857;SDS011;58975;51.978;8.472;2023-12-20T12:12:51;9.68;;;2.65;;
4857;SDS011;58975;51.978;8.472;2023-12-20T12:17:56;16.63;;;3.20;;
4857;SDS011;58975;51.978;8.472;2023-12-20T12:23:00;8.90;;;3.13;;
4857;SDS011;58975;51.978;8.472;2023-12-20T12:27:58;11.48;;;3.00;;
4857;SDS011;58975;51.978;8.472;2023-12-20T12:32:55;10.23;;;3.85;;
4857;SDS011;58975;51.978;8.472;2023-12-20T12:37:52;10.10;;;2.72;;
4857;SDS011;58975;51.978;8.472;2023-12-20T12:42:49;10.57;;;3.55;;
4857;SDS011;58975;51.978;8.472;2023-12-20T12:47:46;23.67;;;4.72;;
4857;SDS011;58975;51.978;8.472;2023-12-20T12:52:43;11.75;;;3.55;;
4857;SDS011;58975;51.978;8.472;2023-12-20T12:57:39;17.08;;;2.78;;
4857;SDS011;58975;51.978;8.472;2023-12-20T13:02:35;12.98;;;3.58;;
4857;SDS011;58975;51.978;8.472;2023-12-20T13:07:34;10.60;;;2.65;;
4857;SDS011;58975;51.978;8.472;2023-12-20T13:12:31;13.73;;;3.83;;
4857;SDS011;58975;51.978;8.472;2023-12-20T13:17:28;12.60;;;2.85;;
4857;SDS011;58975;51.978;8.472;2023-12-20T13:22:27;12.55;;;2.80;;
4857;SDS011;58975;51.978;8.472;2023-12-20T13:27:24;7.70;;;1.88;;
4857;SDS011;58975;51.978;8.472;2023-12-20T13:32:21;4.93;;;1.45;;
4857;SDS011;58975;51.978;8.472;2023-12-20T13:37:17;5.22;;;2.00;;
4857;SDS011;58975;51.978;8.472;2023-12-20T13:42:15;6.20;;;1.08;;
4857;SDS011;58975;51.978;8.472;2023-12-20T13:47:11;7.95;;;1.17;;
4857;SDS011;58975;51.978;8.472;2023-12-20T13:52:08;1.90;;;0.90;;
4857;SDS011;58975;51.978;8.472;2023-12-20T13:57:04;6.60;;;1.27;;
4857;SDS011;58975;51.978;8.472;2023-12-20T14:02:16;2.25;;;1.00;;
4857;SDS011;58975;51.978;8.472;2023-12-20T14:07:13;8.55;;;1.48;;
4857;SDS011;58975;51.978;8.472;2023-12-20T14:12:09;14.80;;;1.20;;
4857;SDS011;58975;51.978;8.472;2023-12-20T14:17:06;5.30;;;1.05;;
4857;SDS011;58975;51.978;8.472;2023-12-20T14:22:02;8.82;;;2.80;;
4857;SDS011;58975;51.978;8.472;2023-12-20T14:27:00;3.23;;;1.13;;
4857;SDS011;58975;51.978;8.472;2023-12-20T14:31:57;4.55;;;1.17;;
4857;SDS011;58975;51.978;8.472;2023-12-20T14:36:53;7.22;;;1.58;;
4857;SDS011;58975;51.978;8.472;2023-12-20T14:41:50;5.68;;;1.40;;
4857;SDS011;58975;51.978;8.472;2023-12-20T14:46:46;7.00;;;0.98;;
4857;SDS011;58975;51.978;8.472;2023-12-20T14:51:45;12.80;;;2.45;;
4857;SDS011;58975;51.978;8.472;2023-12-20T14:56:44;11.35;;;1.65;;
4857;SDS011;58975;51.978;8.472;2023-12-20T15:01:40;6.38;;;1.88;;
4857;SDS011;58975;51.978;8.472;2023-12-20T15:06:37;6.47;;;1.48;;
4857;SDS011;58975;51.978;8.472;2023-12-20T15:11:33;7.60;;;1.92;;
4857;SDS011;58975;51.978;8.472;2023-12-20T15:16:31;10.07;;;1.85;;
4857;SDS011;58975;51.978;8.472;2023-12-20T15:21:28;6.13;;;1.42;;
4857;SDS011;58975;51.978;8.472;2023-12-20T15:26:29;8.10;;;1.67;;
4857;SDS011;58975;51.978;8.472;2023-12-20T15:31:27;10.65;;;3.22;;
4857;SDS011;58975;51.978;8.472;2023-12-20T15:36:24;7.50;;;2.17;;
4857;SDS011;58975;51.978;8.472;2023-12-20T15:41:21;6.20;;;2.33;;
4857;SDS011;58975;51.978;8.472;2023-12-20T15:46:19;3.00;;;1.60;;
4857;SDS011;58975;51.978;8.472;2023-12-20T15:51:17;7.03;;;2.33;;
4857;SDS011;58975;51.978;8.472;2023-12-20T15:56:15;12.82;;;2.80;;
4857;SDS011;58975;51.978;8.472;2023-12-20T16:01:13;7.63;;;3.08;;
4857;SDS011;58975;51.978;8.472;2023-12-20T16:06:09;4.32;;;2.60;;
4857;SDS011;58975;51.978;8.472;2023-12-20T16:11:07;10.88;;;2.75;;
4857;SDS011;58975;51.978;8.472;2023-12-20T16:16:04;11.90;;;2.38;;
4857;SDS011;58975;51.978;8.472;2023-12-20T16:21:02;7.78;;;2.75;;
4857;SDS011;58975;51.978;8.472;2023-12-20T16:25:59;14.00;;;6.10;;
4857;SDS011;58975;51.978;8.472;2023-12-20T16:30:55;25.70;;;7.75;;
4857;SDS011;58975;51.978;8.472;2023-12-20T16:35:55;26.65;;;10.40;;
4857;SDS011;58975;51.978;8.472;2023-12-20T16:40:52;27.02;;;10.27;;
4857;SDS011;58975;51.978;8.472;2023-12-20T16:45:49;20.17;;;8.05;;
4857;SDS011;58975;51.978;8.472;2023-12-20T16:50:46;23.92;;;7.28;;
4857;SDS011;58975;51.978;8.472;2023-12-20T16:55:43;26.40;;;7.82;;
4857;SDS011;58975;51.978;8.472;2023-12-20T17:00:40;20.30;;;8.63;;
4857;SDS011;58975;51.978;8.472;2023-12-20T17:05:37;21.42;;;8.65;;
4857;SDS011;58975;51.978;8.472;2023-12-20T17:10:34;27.77;;;9.73;;
4857;SDS011;58975;51.978;8.472;2023-12-20T17:15:30;19.48;;;9.18;;
4857;SDS011;58975;51.978;8.472;2023-12-20T17:20:27;24.50;;;10.15;;
4857;SDS011;58975;51.978;8.472;2023-12-20T17:25:24;30.27;;;10.60;;
4857;SDS011;58975;51.978;8.472;2023-12-20T17:30:20;33.83;;;8.98;;
4857;SDS011;58975;51.978;8.472;2023-12-20T17:35:16;20.27;;;10.10;;
4857;SDS011;58975;51.978;8.472;2023-12-20T17:40:14;26.67;;;9.98;;
4857;SDS011;58975;51.978;8.472;2023-12-20T17:45:11;25.88;;;10.25;;
4857;SDS011;58975;51.978;8.472;2023-12-20T17:50:08;24.40;;;8.98;;
4857;SDS011;58975;51.978;8.472;2023-12-20T17:55:05;33.47;;;11.02;;
4857;SDS011;58975;51.978;8.472;2023-12-20T18:00:12;29.27;;;12.27;;
4857;SDS011;58975;51.978;8.472;2023-12-20T18:05:10;23.42;;;10.45;;
4857;SDS011;58975;51.978;8.472;2023-12-20T18:10:07;27.55;;;12.15;;
4857;SDS011;58975;51.978;8.472;2023-12-20T18:15:04;22.98;;;12.20;;
4857;SDS011;58975;51.978;8.472;2023-12-20T18:20:01;29.83;;;11.27;;
4857;SDS011;58975;51.978;8.472;2023-12-20T18:25:00;28.83;;;10.57;;
4857;SDS011;58975;51.978;8.472;2023-12-20T18:29:56;29.67;;;10.98;;
4857;SDS011;58975;51.978;8.472;2023-12-20T18:35:07;27.63;;;11.70;;
4857;SDS011;58975;51.978;8.472;2023-12-20T18:40:04;35.92;;;12.10;;
4857;SDS011;58975;51.978;8.472;2023-12-20T18:45:02;37.95;;;11.70;;
4857;SDS011;58975;51.978;8.472;2023-12-20T18:50:00;26.40;;;12.45;;
4857;SDS011;58975;51.978;8.472;2023-12-20T18:55:04;28.60;;;12.98;;
4857;SDS011;58975;51.978;8.472;2023-12-20T19:00:01;33.25;;;14.40;;
4857;SDS011;58975;51.978;8.472;2023-12-20T19:05:00;31.98;;;14.95;;
4857;SDS011;58975;51.978;8.472;2023-12-20T19:09:57;38.22;;;15.85;;
4857;SDS011;58975;51.978;8.472;2023-12-20T19:14:54;36.88;;;17.45;;
4857;SDS011;58975;51.978;8.472;2023-12-20T19:19:50;36.45;;;17.98;;
4857;SDS011;58975;51.978;8.472;2023-12-20T19:24:47;32.28;;;17.30;;
4857;SDS011;58975;51.978;8.472;2023-12-20T19:29:43;41.75;;;19.88;;
4857;SDS011;58975;51.978;8.472;2023-12-20T19:34:39;39.47;;;18.42;;
4857;SDS011;58975;51.978;8.472;2023-12-20T19:39:36;31.38;;;17.98;;
4857;SDS011;58975;51.978;8.472;2023-12-20T19:44:33;33.58;;;18.23;;
4857;SDS011;58975;51.978;8.472;2023-12-20T19:49:30;33.88;;;18.58;;
4857;SDS011;58975;51.978;8.472;2023-12-20T19:54:26;35.40;;;18.65;;
4857;SDS011;58975;51.978;8.472;2023-12-20T19:59:23;39.08;;;18.35;;
4857;SDS011;58975;51.978;8.472;2023-12-20T20:04:19;29.27;;;16.27;;
4857;SDS011;58975;51.978;8.472;2023-12-20T20:09:16;35.95;;;16.98;;
4857;SDS011;58975;51.978;8.472;2023-12-20T20:14:12;34.58;;;16.98;;
4857;SDS011;58975;51.978;8.472;2023-12-20T20:19:09;34.97;;;18.25;;
4857;SDS011;58975;51.978;8.472;2023-12-20T20:24:06;35.78;;;18.83;;
4857;SDS011;58975;51.978;8.472;2023-12-20T20:29:03;28.90;;;17.88;;
4857;SDS011;58975;51.978;8.472;2023-12-20T20:33:59;31.55;;;17.90;;
4857;SDS011;58975;51.978;8.472;2023-12-20T20:38:56;32.42;;;18.40;;
4857;SDS011;58975;51.978;8.472;2023-12-20T20:43:53;28.92;;;16.58;;
4857;SDS011;58975;51.978;8.472;2023-12-20T20:48:49;30.67;;;16.80;;
4857;SDS011;58975;51.978;8.472;2023-12-20T20:53:47;30.77;;;17.55;;
4857;SDS011;58975;51.978;8.472;2023-12-20T20:58:53;28.23;;;16.45;;
4857;SDS011;58975;51.978;8.472;2023-12-20T21:03:49;22.20;;;13.88;;
4857;SDS011;58975;51.978;8.472;2023-12-20T21:08:46;26.92;;;15.25;;
4857;SDS011;58975;51.978;8.472;2023-12-20T21:13:42;24.58;;;13.82;;
4857;SDS011;58975;51.978;8.472;2023-12-20T21:18:41;25.15;;;14.75;;
4857;SDS011;58975;51.978;8.472;2023-12-20T21:23:39;22.45;;;13.13;;
4857;SDS011;58975;51.978;8.472;2023-12-20T21:28:36;20.70;;;13.18;;
4857;SDS011;58975;51.978;8.472;2023-12-20T21:33:33;20.30;;;13.77;;
4857;SDS011;58975;51.978;8.472;2023-12-20T21:38:30;24.05;;;13.80;;
4857;SDS011;58975;51.978;8.472;2023-12-20T21:43:26;26.65;;;14.35;;
4857;SDS011;58975;51.978;8.472;2023-12-20T21:48:23;22.60;;;13.13;;
4857;SDS011;58975;51.978;8.472;2023-12-20T21:53:19;21.73;;;14.15;;
4857;SDS011;58975;51.978;8.472;2023-12-20T21:58:15;18.55;;;12.20;;
4857;SDS011;58975;51.978;8.472;2023-12-20T22:03:12;20.17;;;11.30;;
4857;SDS011;58975;51.978;8.472;2023-12-20T22:08:08;17.35;;;11.70;;
4857;SDS011;58975;51.978;8.472;2023-12-20T22:13:05;22.33;;;11.52;;
4857;SDS011;58975;51.978;8.472;2023-12-20T22:18:02;14.93;;;10.13;;
4857;SDS011;58975;51.978;8.472;2023-12-20T22:22:58;17.92;;;10.77;;
4857;SDS011;58975;51.978;8.472;2023-12-20T22:27:55;18.30;;;10.85;;
4857;SDS011;58975;51.978;8.472;2023-12-20T22:32:52;14.75;;;9.85;;
4857;SDS011;58975;51.978;8.472;2023-12-20T22:37:48;16.35;;;10.38;;
4857;SDS011;58975;51.978;8.472;2023-12-20T22:42:45;17.13;;;9.45;;
4857;SDS011;58975;51.978;8.472;2023-12-20T22:47:41;13.13;;;8.73;;
4857;SDS011;58975;51.978;8.472;2023-12-20T22:52:39;11.47;;;8.00;;
4857;SDS011;58975;51.978;8.472;2023-12-20T22:57:36;13.38;;;9.85;;
4857;SDS011;58975;51.978;8.472;2023-12-20T23:02:34;13.80;;;9.43;;
4857;SDS011;58975;51.978;8.472;2023-12-20T23:07:30;18.60;;;9.88;;
4857;SDS011;58975;51.978;8.472;2023-12-20T23:12:27;14.43;;;8.82;;
4857;SDS011;58975;51.978;8.472;2023-12-20T23:17:23;13.52;;;9.35;;
4857;SDS011;58975;51.978;8.472;2023-12-20T23:22:21;14.93;;;9.35;;
4857;SDS011;58975;51.978;8.472;2023-12-20T23:27:19;12.02;;;8.20;;
4857;SDS011;58975;51.978;8.472;2023-12-20T23:32:15;13.35;;;9.13;;
4857;SDS011;58975;51.978;8.472;2023-12-20T23:37:12;10.27;;;7.57;;
4857;SDS011;58975;51.978;8.472;2023-12-20T23:42:08;9.50;;;7.05;;
4857;SDS011;58975;51.978;8.472;2023-12-20T23:47:04;10.48;;;7.78;;
4857;SDS011;58975;51.978;8.472;2023-12-20T23:52:01;11.07;;;7.70;;
4857;SDS011;58975;51.978;8.472;2023-12-20T23:56:58;14.15;;;7.72;;
